weather.gov     
National Weather Service

Terminal Aerodrome Forecast
NWS Homepage
This page is being discontinued on March 12, 2014.
The same data is available at this site. Please update your bookmarks.
Thank you, and we apologize for the inconvenience.
Please send an email to SR-SRH.Webmaster@noaa.gov with any concerns.


Current Version
Previous Version:    01  02  03  04  05  06  07  08  09  10  11  12  13  14  15  16  17  18  19  20  21  22  23  24  25  26  27  28  29  30  
   31  32  33  34  35  36  37  
[Printable]
137
FTUS43 KARX 230529
TAFLSE
TAF
KLSE 230529Z 2306/2406 18010KT 2SM BR OVC004 WS020/22042KT
      TEMPO 2306/2308 1SM BR
     FM230800 18008KT 2SM -DZ BR OVC004 WS020/22046KT
     FM231100 18006KT 4SM -DZ BR OVC006
     FM232200 VRB04KT 4SM -RA BR OVC008
     FM240200 31007KT 4SM -RA BR OVC008=




137
FTUS43 KARX 230529
TAFLSE
TAF
KLSE 230529Z 2306/2406 18010KT 2SM BR OVC004 WS020/22042KT
      TEMPO 2306/2308 1SM BR
     FM230800 18008KT 2SM -DZ BR OVC004 WS020/22046KT
     FM231100 18006KT 4SM -DZ BR OVC006
     FM232200 VRB04KT 4SM -RA BR OVC008
     FM240200 31007KT 4SM -RA BR OVC008=


U.S. Dept. of Commerce
NOAA National Weather Service
1325 East West Highway
Silver Spring, MD 20910
E-mail: w-nws.webmaster@noaa.gov
Page last modified: May 16, 2007
NATIONAL WEATHER SERVICE: for Safety, for Work, for Fun - FOR LIFE